sensor_id;sensor_type;location;lat;lon;timestamp;pressure;altitude;pressure_sealevel;temperature;humidity
70314;BME280;71040;47.526;18.986;2023-08-21T00:02:01;100185.66;;;25.20;88.07
70314;BME280;71040;47.526;18.986;2023-08-21T00:07:07;100180.47;;;25.18;87.54
70314;BME280;71040;47.526;18.986;2023-08-21T00:12:09;100192.00;;;25.19;88.06
70314;BME280;71040;47.526;18.986;2023-08-21T00:17:12;100185.13;;;25.16;87.63
70314;BME280;71040;47.526;18.986;2023-08-21T00:22:14;100184.28;;;25.16;87.84
70314;BME280;71040;47.526;18.986;2023-08-21T00:33:14;100194.31;;;25.14;88.06
70314;BME280;71040;47.526;18.986;2023-08-21T00:38:17;100192.63;;;25.13;88.17
70314;BME280;71040;47.526;18.986;2023-08-21T00:43:17;100199.97;;;25.11;87.87
70314;BME280;71040;47.526;18.986;2023-08-21T00:48:20;100203.47;;;25.11;88.15
70314;BME280;71040;47.526;18.986;2023-08-21T00:59:42;100204.75;;;25.07;87.77
70314;BME280;71040;47.526;18.986;2023-08-21T01:04:43;100206.72;;;25.05;88.02
70314;BME280;71040;47.526;18.986;2023-08-21T01:09:50;100202.22;;;25.06;87.85
70314;BME280;71040;47.526;18.986;2023-08-21T01:15:01;100212.09;;;25.05;88.21
70314;BME280;71040;47.526;18.986;2023-08-21T01:20:04;100216.59;;;25.05;88.11
70314;BME280;71040;47.526;18.986;2023-08-21T01:25:09;100219.59;;;25.02;88.32
70314;BME280;71040;47.526;18.986;2023-08-21T01:30:10;100224.94;;;25.02;88.33
70314;BME280;71040;47.526;18.986;2023-08-21T01:35:11;100227.75;;;25.00;88.31
70314;BME280;71040;47.526;18.986;2023-08-21T01:40:14;100221.56;;;25.00;88.22
70314;BME280;71040;47.526;18.986;2023-08-21T01:45:22;100232.41;;;24.98;88.32
70314;BME280;71040;47.526;18.986;2023-08-21T01:50:22;100236.06;;;24.97;87.98
70314;BME280;71040;47.526;18.986;2023-08-21T01:55:23;100235.38;;;24.95;88.12
70314;BME280;71040;47.526;18.986;2023-08-21T02:00:23;100235.38;;;24.95;88.15
70314;BME280;71040;47.526;18.986;2023-08-21T02:05:26;100233.69;;;24.94;88.41
70314;BME280;71040;47.526;18.986;2023-08-21T02:10:26;100235.66;;;24.92;88.10
70314;BME280;71040;47.526;18.986;2023-08-21T02:15:27;100237.50;;;24.92;88.52
70314;BME280;71040;47.526;18.986;2023-08-21T02:20:29;100224.41;;;24.88;88.50
70314;BME280;71040;47.526;18.986;2023-08-21T02:25:32;100234.13;;;24.89;88.49
70314;BME280;71040;47.526;18.986;2023-08-21T02:30:33;100231.59;;;24.88;88.33
70314;BME280;71040;47.526;18.986;2023-08-21T02:35:35;100234.41;;;24.86;88.47
70314;BME280;71040;47.526;18.986;2023-08-21T02:40:36;100233.56;;;24.86;88.47
70314;BME280;71040;47.526;18.986;2023-08-21T02:45:39;100236.38;;;24.84;88.30
70314;BME280;71040;47.526;18.986;2023-08-21T02:50:39;100234.69;;;24.83;88.19
70314;BME280;71040;47.526;18.986;2023-08-21T02:55:42;100228.66;;;24.81;88.16
70314;BME280;71040;47.526;18.986;2023-08-21T03:00:44;100229.66;;;24.80;88.39
70314;BME280;71040;47.526;18.986;2023-08-21T03:05:45;100223.47;;;24.80;88.46
70314;BME280;71040;47.526;18.986;2023-08-21T03:10:45;100219.13;;;24.79;88.54
70314;BME280;71040;47.526;18.986;2023-08-21T03:15:46;100222.78;;;24.78;88.55
70314;BME280;71040;47.526;18.986;2023-08-21T03:20:48;100222.06;;;24.76;88.54
70314;BME280;71040;47.526;18.986;2023-08-21T03:25:55;100230.25;;;24.74;88.69
70314;BME280;71040;47.526;18.986;2023-08-21T03:30:55;100230.38;;;24.73;88.66
70314;BME280;71040;47.526;18.986;2023-08-21T03:35:55;100228.69;;;24.72;88.77
70314;BME280;71040;47.526;18.986;2023-08-21T03:40:56;100234.19;;;24.70;88.51
70314;BME280;71040;47.526;18.986;2023-08-21T03:45:58;100235.16;;;24.69;88.96
70314;BME280;71040;47.526;18.986;2023-08-21T03:50:59;100236.19;;;24.68;89.14
70314;BME280;71040;47.526;18.986;2023-08-21T03:56:05;100236.34;;;24.67;89.02
70314;BME280;71040;47.526;18.986;2023-08-21T04:01:05;100233.81;;;24.65;89.13
70314;BME280;71040;47.526;18.986;2023-08-21T04:06:08;100227.75;;;24.63;89.11
70314;BME280;71040;47.526;18.986;2023-08-21T04:11:09;100231.28;;;24.64;89.08
70314;BME280;71040;47.526;18.986;2023-08-21T04:16:09;100234.09;;;24.62;88.73
70314;BME280;71040;47.526;18.986;2023-08-21T04:21:12;100234.22;;;24.61;89.09
70314;BME280;71040;47.526;18.986;2023-08-21T04:26:12;100240.56;;;24.60;88.84
70314;BME280;71040;47.526;18.986;2023-08-21T04:31:13;100236.38;;;24.57;89.13
70314;BME280;71040;47.526;18.986;2023-08-21T04:36:15;100251.56;;;24.57;89.18
70314;BME280;71040;47.526;18.986;2023-08-21T04:41:15;100240.03;;;24.56;88.99
70314;BME280;71040;47.526;18.986;2023-08-21T04:46:16;100245.53;;;24.54;89.28
70314;BME280;71040;47.526;18.986;2023-08-21T04:51:16;100243.84;;;24.53;88.86
70314;BME280;71040;47.526;18.986;2023-08-21T04:56:17;100246.66;;;24.52;89.04
70314;BME280;71040;47.526;18.986;2023-08-21T05:01:17;100245.94;;;24.50;89.13
70314;BME280;71040;47.526;18.986;2023-08-21T05:06:20;100251.28;;;24.50;89.40
70314;BME280;71040;47.526;18.986;2023-08-21T05:11:20;100257.63;;;24.49;89.44
70314;BME280;71040;47.526;18.986;2023-08-21T05:16:21;100262.97;;;24.49;89.20
70314;BME280;71040;47.526;18.986;2023-08-21T05:21:21;100264.94;;;24.47;89.39
70314;BME280;71040;47.526;18.986;2023-08-21T05:26:21;100268.63;;;24.46;89.70
70314;BME280;71040;47.526;18.986;2023-08-21T05:31:27;100265.09;;;24.45;89.22
70314;BME280;71040;47.526;18.986;2023-08-21T05:36:27;100263.56;;;24.43;89.59
70314;BME280;71040;47.526;18.986;2023-08-21T05:41:34;100267.22;;;24.42;89.79
70314;BME280;71040;47.526;18.986;2023-08-21T05:46:35;100271.72;;;24.41;89.69
70314;BME280;71040;47.526;18.986;2023-08-21T05:57:31;100278.03;;;24.40;90.29
70314;BME280;71040;47.526;18.986;2023-08-21T06:02:34;100275.66;;;24.37;90.40
70314;BME280;71040;47.526;18.986;2023-08-21T06:07:35;100276.50;;;24.38;90.08
70314;BME280;71040;47.526;18.986;2023-08-21T06:12:35;100284.66;;;24.36;90.36
70314;BME280;71040;47.526;18.986;2023-08-21T06:17:36;100277.63;;;24.35;90.34
70314;BME280;71040;47.526;18.986;2023-08-21T06:22:43;100285.63;;;24.35;90.48
70314;BME280;71040;47.526;18.986;2023-08-21T06:27:43;100282.97;;;24.35;90.76
70314;BME280;71040;47.526;18.986;2023-08-21T06:32:44;100283.81;;;24.36;90.97
70314;BME280;71040;47.526;18.986;2023-08-21T06:37:47;100280.16;;;24.37;90.89
70314;BME280;71040;47.526;18.986;2023-08-21T06:42:47;100282.53;;;24.40;91.85
70314;BME280;71040;47.526;18.986;2023-08-21T06:47:53;100287.59;;;24.43;92.21
70314;BME280;71040;47.526;18.986;2023-08-21T06:52:53;100290.00;;;24.46;92.67
70314;BME280;71040;47.526;18.986;2023-08-21T06:57:54;100283.63;;;24.47;92.56
70314;BME280;71040;47.526;18.986;2023-08-21T07:02:59;100278.28;;;24.47;92.56
70314;BME280;71040;47.526;18.986;2023-08-21T07:08:00;100272.81;;;24.48;92.99
70314;BME280;71040;47.526;18.986;2023-08-21T07:13:06;100275.34;;;24.50;93.20
70314;BME280;71040;47.526;18.986;2023-08-21T07:18:06;100270.97;;;24.49;93.01
70314;BME280;71040;47.526;18.986;2023-08-21T07:23:09;100276.31;;;24.49;92.91
70314;BME280;71040;47.526;18.986;2023-08-21T07:28:09;100279.00;;;24.49;92.83
70314;BME280;71040;47.526;18.986;2023-08-21T07:33:13;100279.97;;;24.48;92.43
70314;BME280;71040;47.526;18.986;2023-08-21T07:38:16;100281.97;;;24.46;92.32
70314;BME280;71040;47.526;18.986;2023-08-21T07:43:16;100283.63;;;24.47;92.60
70314;BME280;71040;47.526;18.986;2023-08-21T07:48:19;100279.31;;;24.46;92.68
70314;BME280;71040;47.526;18.986;2023-08-21T07:53:19;100290.00;;;24.46;92.14
70314;BME280;71040;47.526;18.986;2023-08-21T07:58:22;100288.13;;;24.46;92.13
70314;BME280;71040;47.526;18.986;2023-08-21T08:03:23;100289.16;;;24.45;92.45
70314;BME280;71040;47.526;18.986;2023-08-21T08:08:26;100288.97;;;24.47;92.00
70314;BME280;71040;47.526;18.986;2023-08-21T08:13:26;100294.19;;;24.48;92.18
70314;BME280;71040;47.526;18.986;2023-08-21T08:18:26;100294.19;;;24.48;92.21
70314;BME280;71040;47.526;18.986;2023-08-21T08:23:27;100289.69;;;24.49;91.97
70314;BME280;71040;47.526;18.986;2023-08-21T08:40:22;100292.09;;;24.52;91.98
70314;BME280;71040;47.526;18.986;2023-08-21T08:45:28;100293.78;;;24.53;92.30
70314;BME280;71040;47.526;18.986;2023-08-21T08:50:34;100291.94;;;24.53;92.00
70314;BME280;71040;47.526;18.986;2023-08-21T08:55:36;100302.50;;;24.55;92.38
70314;BME280;71040;47.526;18.986;2023-08-21T09:00:52;100299.50;;;24.58;92.06
70314;BME280;71040;47.526;18.986;2023-08-21T09:06:29;100303.03;;;24.59;92.37
70314;BME280;71040;47.526;18.986;2023-08-21T09:11:32;100296.69;;;24.60;92.31
70314;BME280;71040;47.526;18.986;2023-08-21T09:16:33;100303.72;;;24.61;91.90
70314;BME280;71040;47.526;18.986;2023-08-21T09:21:35;100286.56;;;24.63;92.18
70314;BME280;71040;47.526;18.986;2023-08-21T09:26:37;100278.41;;;24.65;91.94
70314;BME280;71040;47.526;18.986;2023-08-21T09:31:37;100278.25;;;24.66;91.86
70314;BME280;71040;47.526;18.986;2023-08-21T09:36:38;100283.47;;;24.68;91.84
70314;BME280;71040;47.526;18.986;2023-08-21T09:41:39;100274.28;;;24.70;91.67
70314;BME280;71040;47.526;18.986;2023-08-21T09:46:40;100275.13;;;24.71;91.91
70314;BME280;71040;47.526;18.986;2023-08-21T09:51:41;100262.47;;;24.73;91.46
70314;BME280;71040;47.526;18.986;2023-08-21T09:56:45;100260.50;;;24.75;91.65
70314;BME280;71040;47.526;18.986;2023-08-21T10:01:49;100260.22;;;24.78;91.65
70314;BME280;71040;47.526;18.986;2023-08-21T10:06:54;100260.06;;;24.79;91.34
70314;BME280;71040;47.526;18.986;2023-08-21T10:11:58;100250.03;;;24.81;91.28
70314;BME280;71040;47.526;18.986;2023-08-21T10:16:58;100247.91;;;24.85;91.65
70314;BME280;71040;47.526;18.986;2023-08-21T10:21:59;100240.75;;;24.85;91.30
70314;BME280;71040;47.526;18.986;2023-08-21T10:27:00;100241.28;;;24.89;91.51
70314;BME280;71040;47.526;18.986;2023-08-21T10:32:04;100237.50;;;24.92;91.04
70314;BME280;71040;47.526;18.986;2023-08-21T10:37:10;100236.34;;;24.94;91.15
70314;BME280;71040;47.526;18.986;2023-08-21T10:42:14;100236.06;;;24.97;91.56
70314;BME280;71040;47.526;18.986;2023-08-21T10:52:29;100232.13;;;25.01;90.46
70314;BME280;71040;47.526;18.986;2023-08-21T10:57:31;100225.47;;;25.05;90.64
70314;BME280;71040;47.526;18.986;2023-08-21T11:02:32;100233.19;;;25.08;90.69
70314;BME280;71040;47.526;18.986;2023-08-21T11:07:59;100228.41;;;25.12;90.74
70314;BME280;71040;47.526;18.986;2023-08-21T11:12:59;100221.91;;;25.14;90.76
70314;BME280;71040;47.526;18.986;2023-08-21T11:18:01;100216.38;;;25.16;90.62
70314;BME280;71040;47.526;18.986;2023-08-21T11:23:04;100209.75;;;25.20;90.55
70314;BME280;71040;47.526;18.986;2023-08-21T11:28:08;100208.59;;;25.22;90.31
70314;BME280;71040;47.526;18.986;2023-08-21T11:33:10;100206.63;;;25.24;90.01
70314;BME280;71040;47.526;18.986;2023-08-21T11:38:21;100200.94;;;25.27;90.02
70314;BME280;71040;47.526;18.986;2023-08-21T11:43:22;100203.34;;;25.31;89.95
70314;BME280;71040;47.526;18.986;2023-08-21T11:48:37;100206.56;;;25.34;89.77
70314;BME280;71040;47.526;18.986;2023-08-21T11:53:40;100196.41;;;25.38;90.15
70314;BME280;71040;47.526;18.986;2023-08-21T11:58:42;100190.88;;;25.39;89.77
70314;BME280;71040;47.526;18.986;2023-08-21T12:03:43;100191.41;;;25.43;89.57
70314;BME280;71040;47.526;18.986;2023-08-21T12:08:44;100183.22;;;25.44;89.98
70314;BME280;71040;47.526;18.986;2023-08-21T12:13:46;100188.28;;;25.47;89.61
70314;BME280;71040;47.526;18.986;2023-08-21T12:18:47;100178.28;;;25.49;89.62
70314;BME280;71040;47.526;18.986;2023-08-21T12:23:47;100178.09;;;25.51;89.75
70314;BME280;71040;47.526;18.986;2023-08-21T12:28:51;100174.28;;;25.53;89.23
70314;BME280;71040;47.526;18.986;2023-08-21T12:33:51;100173.97;;;25.56;89.52
70314;BME280;71040;47.526;18.986;2023-08-21T12:38:54;100165.78;;;25.58;89.13
70314;BME280;71040;47.526;18.986;2023-08-21T12:43:54;100165.53;;;25.61;89.41
70314;BME280;71040;47.526;18.986;2023-08-21T12:48:56;100162.00;;;25.60;89.15
70314;BME280;71040;47.526;18.986;2023-08-21T12:53:56;100155.78;;;25.60;89.06
70314;BME280;71040;47.526;18.986;2023-08-21T12:58:57;100157.84;;;25.66;88.99
70314;BME280;71040;47.526;18.986;2023-08-21T13:04:00;100155.03;;;25.68;88.66
70314;BME280;71040;47.526;18.986;2023-08-21T13:09:00;100151.34;;;25.69;88.41
70314;BME280;71040;47.526;18.986;2023-08-21T13:14:04;100137.66;;;25.72;88.58
70314;BME280;71040;47.526;18.986;2023-08-21T13:19:06;100141.84;;;25.74;88.70
70314;BME280;71040;47.526;18.986;2023-08-21T13:24:07;100139.00;;;25.76;88.38
70314;BME280;71040;47.526;18.986;2023-08-21T13:29:10;100122.94;;;25.76;88.51
70314;BME280;71040;47.526;18.986;2023-08-21T13:34:12;100133.50;;;25.77;88.19
70314;BME280;71040;47.526;18.986;2023-08-21T13:39:13;100137.72;;;25.80;88.13
70314;BME280;71040;47.526;18.986;2023-08-21T13:44:15;100130.53;;;25.80;88.50
70314;BME280;71040;47.526;18.986;2023-08-21T13:49:16;100125.00;;;25.82;88.48
70314;BME280;71040;47.526;18.986;2023-08-21T13:54:18;100126.69;;;25.83;88.28
70314;BME280;71040;47.526;18.986;2023-08-21T13:59:19;100123.03;;;25.84;88.20
70314;BME280;71040;47.526;18.986;2023-08-21T14:04:19;100119.00;;;25.88;87.90
70314;BME280;71040;47.526;18.986;2023-08-21T14:09:20;100107.72;;;26.28;78.78
70314;BME280;71040;47.526;18.986;2023-08-21T14:14:23;100108.38;;;26.72;75.77
70314;BME280;71040;47.526;18.986;2023-08-21T14:19:23;100105.13;;;26.94;74.33
70314;BME280;71040;47.526;18.986;2023-08-21T14:24:24;100101.09;;;27.15;72.66
70314;BME280;71040;47.526;18.986;2023-08-21T14:29:24;100092.25;;;27.30;73.53
70314;BME280;71040;47.526;18.986;2023-08-21T14:34:24;100086.19;;;27.36;72.95
70314;BME280;71040;47.526;18.986;2023-08-21T14:39:25;100095.06;;;27.37;72.55
70314;BME280;71040;47.526;18.986;2023-08-21T14:44:25;100078.47;;;27.42;73.00
70314;BME280;71040;47.526;18.986;2023-08-21T14:49:26;100088.38;;;27.41;74.03
70314;BME280;71040;47.526;18.986;2023-08-21T14:54:29;100087.03;;;27.45;71.39
70314;BME280;71040;47.526;18.986;2023-08-21T14:59:29;100088.88;;;27.53;72.48
70314;BME280;71040;47.526;18.986;2023-08-21T15:04:38;100080.16;;;27.59;71.29
70314;BME280;71040;47.526;18.986;2023-08-21T15:09:44;100074.13;;;27.65;71.69
70314;BME280;71040;47.526;18.986;2023-08-21T15:14:45;100074.13;;;27.65;72.05
70314;BME280;71040;47.526;18.986;2023-08-21T15:19:47;100072.59;;;27.62;71.39
70314;BME280;71040;47.526;18.986;2023-08-21T15:24:51;100080.81;;;27.61;73.15
70314;BME280;71040;47.526;18.986;2023-08-21T15:29:51;100077.66;;;27.57;71.79
70314;BME280;71040;47.526;18.986;2023-08-21T15:34:52;100074.16;;;27.57;70.97
70314;BME280;71040;47.526;18.986;2023-08-21T15:39:52;100070.75;;;27.63;71.18
70314;BME280;71040;47.526;18.986;2023-08-21T15:44:53;100069.59;;;27.65;72.28
70314;BME280;71040;47.526;18.986;2023-08-21T15:49:53;100064.38;;;27.64;73.17
70314;BME280;71040;47.526;18.986;2023-08-21T15:54:53;100050.28;;;27.62;71.51
70314;BME280;71040;47.526;18.986;2023-08-21T15:59:54;100057.50;;;27.61;72.42
70314;BME280;71040;47.526;18.986;2023-08-21T16:05:00;100057.34;;;27.63;73.28
70314;BME280;71040;47.526;18.986;2023-08-21T16:10:01;100051.78;;;27.64;73.48
70314;BME280;71040;47.526;18.986;2023-08-21T16:15:04;100044.75;;;27.63;74.81
70314;BME280;71040;47.526;18.986;2023-08-21T16:20:05;100049.28;;;27.63;76.23
70314;BME280;71040;47.526;18.986;2023-08-21T16:25:07;100051.63;;;27.58;76.49
70314;BME280;71040;47.526;18.986;2023-08-21T16:30:08;100055.34;;;27.57;78.17
70314;BME280;71040;47.526;18.986;2023-08-21T16:35:09;100058.50;;;27.60;80.85
70314;BME280;71040;47.526;18.986;2023-08-21T16:40:10;100055.50;;;27.55;82.48
70314;BME280;71040;47.526;18.986;2023-08-21T16:45:11;100057.97;;;27.49;83.44
70314;BME280;71040;47.526;18.986;2023-08-21T16:50:14;100074.13;;;27.40;83.97
70314;BME280;71040;47.526;18.986;2023-08-21T16:55:14;100072.44;;;27.31;84.31
70314;BME280;71040;47.526;18.986;2023-08-21T17:00:15;100070.56;;;27.24;84.64
70314;BME280;71040;47.526;18.986;2023-08-21T17:05:15;100065.72;;;27.19;84.32
70314;BME280;71040;47.526;18.986;2023-08-21T17:10:16;100071.59;;;27.15;84.69
70314;BME280;71040;47.526;18.986;2023-08-21T17:15:18;100067.75;;;27.09;85.42
70314;BME280;71040;47.526;18.986;2023-08-21T17:20:19;100065.72;;;27.03;85.16
70314;BME280;71040;47.526;18.986;2023-08-21T17:25:20;100069.75;;;26.99;85.82
70314;BME280;71040;47.526;18.986;2023-08-21T17:30:20;100075.59;;;26.94;85.45
70314;BME280;71040;47.526;18.986;2023-08-21T17:35:23;100075.41;;;26.88;85.60
70314;BME280;71040;47.526;18.986;2023-08-21T17:40:24;100076.56;;;26.85;85.70
70314;BME280;71040;47.526;18.986;2023-08-21T17:45:30;100086.09;;;26.80;85.56
70314;BME280;71040;47.526;18.986;2023-08-21T17:50:33;100082.94;;;26.76;85.58
70314;BME280;71040;47.526;18.986;2023-08-21T17:55:34;100094.97;;;26.72;85.29
70314;BME280;71040;47.526;18.986;2023-08-21T18:00:34;100094.44;;;26.68;85.88
70314;BME280;71040;47.526;18.986;2023-08-21T18:05:35;100093.97;;;26.65;85.47
70314;BME280;71040;47.526;18.986;2023-08-21T18:10:35;100102.47;;;26.60;85.94
70314;BME280;71040;47.526;18.986;2023-08-21T18:15:36;100104.63;;;26.57;85.79
70314;BME280;71040;47.526;18.986;2023-08-21T18:25:50;100113.34;;;26.51;85.59
70314;BME280;71040;47.526;18.986;2023-08-21T18:30:52;100122.53;;;26.48;85.57
70314;BME280;71040;47.526;18.986;2023-08-21T18:35:53;100122.69;;;26.47;85.69
70314;BME280;71040;47.526;18.986;2023-08-21T18:40:56;100124.84;;;26.43;85.28
70314;BME280;71040;47.526;18.986;2023-08-21T18:45:56;100137.91;;;26.38;85.63
70314;BME280;71040;47.526;18.986;2023-08-21T18:50:57;100137.38;;;26.35;85.94
70314;BME280;71040;47.526;18.986;2023-08-21T18:55:57;100139.53;;;26.31;85.71
70314;BME280;71040;47.526;18.986;2023-08-21T19:00:58;100133.69;;;26.27;85.82
70314;BME280;71040;47.526;18.986;2023-08-21T19:05:58;100131.28;;;26.24;85.65
70314;BME280;71040;47.526;18.986;2023-08-21T19:11:00;100130.75;;;26.21;85.47
70314;BME280;71040;47.526;18.986;2023-08-21T19:16:03;100143.50;;;26.19;85.75
70314;BME280;71040;47.526;18.986;2023-08-21T19:21:06;100136.75;;;26.15;85.96
70314;BME280;71040;47.526;18.986;2023-08-21T19:32:06;100135.53;;;26.09;85.90
70314;BME280;71040;47.526;18.986;2023-08-21T19:37:11;100147.44;;;26.07;85.50
70314;BME280;71040;47.526;18.986;2023-08-21T19:42:11;100152.09;;;26.05;85.62
70314;BME280;71040;47.526;18.986;2023-08-21T19:47:11;100155.78;;;26.04;85.43
70314;BME280;71040;47.526;18.986;2023-08-21T19:52:12;100148.06;;;26.01;85.49
70314;BME280;71040;47.526;18.986;2023-08-21T19:57:12;100147.03;;;25.93;85.72
70314;BME280;71040;47.526;18.986;2023-08-21T20:02:13;100145.34;;;25.92;85.62
70314;BME280;71040;47.526;18.986;2023-08-21T20:07:18;100153.53;;;25.91;85.71
70314;BME280;71040;47.526;18.986;2023-08-21T20:12:18;100157.34;;;25.88;85.62
70314;BME280;71040;47.526;18.986;2023-08-21T20:17:22;100159.34;;;25.86;85.59
70314;BME280;71040;47.526;18.986;2023-08-21T20:22:23;100162.16;;;25.85;86.13
70314;BME280;71040;47.526;18.986;2023-08-21T20:27:23;100165.19;;;25.82;86.14
70314;BME280;71040;47.526;18.986;2023-08-21T20:32:23;100163.81;;;25.78;85.74
70314;BME280;71040;47.526;18.986;2023-08-21T20:37:26;100166.94;;;25.73;85.78
70314;BME280;71040;47.526;18.986;2023-08-21T20:42:27;100161.91;;;25.70;85.21
70314;BME280;71040;47.526;18.986;2023-08-21T20:47:31;100153.50;;;25.65;85.44
70314;BME280;71040;47.526;18.986;2023-08-21T20:52:35;100157.16;;;25.64;85.26
70314;BME280;71040;47.526;18.986;2023-08-21T20:57:37;100154.81;;;25.61;85.40
70314;BME280;71040;47.526;18.986;2023-08-21T21:02:38;100163.97;;;25.58;85.28
70314;BME280;71040;47.526;18.986;2023-08-21T21:07:40;100157.06;;;25.56;85.02
70314;BME280;71040;47.526;18.986;2023-08-21T21:12:41;100170.59;;;25.54;85.11
70314;BME280;71040;47.526;18.986;2023-08-21T21:23:38;100165.19;;;25.46;85.00
70314;BME280;71040;47.526;18.986;2023-08-21T21:28:38;100166.19;;;25.45;85.17
70314;BME280;71040;47.526;18.986;2023-08-21T21:33:39;100166.34;;;25.44;85.48
70314;BME280;71040;47.526;18.986;2023-08-21T21:38:39;100160.44;;;25.40;85.69
70314;BME280;71040;47.526;18.986;2023-08-21T21:55:33;100164.72;;;25.33;85.32
70314;BME280;71040;47.526;18.986;2023-08-21T22:00:34;100166.72;;;25.31;85.64
70314;BME280;71040;47.526;18.986;2023-08-21T22:05:34;100169.03;;;25.26;85.15
70314;BME280;71040;47.526;18.986;2023-08-21T22:10:36;100170.00;;;25.25;84.93
70314;BME280;71040;47.526;18.986;2023-08-21T22:15:36;100166.78;;;25.21;84.70
70314;BME280;71040;47.526;18.986;2023-08-21T22:20:37;100176.09;;;25.17;85.29
70314;BME280;71040;47.526;18.986;2023-08-21T22:25:38;100173.56;;;25.16;85.37
70314;BME280;71040;47.526;18.986;2023-08-21T22:37:09;100162.34;;;25.12;85.73
70314;BME280;71040;47.526;18.986;2023-08-21T22:42:12;100163.50;;;25.10;85.81
70314;BME280;71040;47.526;18.986;2023-08-21T22:47:17;100164.78;;;25.06;85.09
70314;BME280;71040;47.526;18.986;2023-08-21T22:52:18;100160.59;;;25.03;85.06
70314;BME280;71040;47.526;18.986;2023-08-21T22:57:18;100167.22;;;24.99;85.21
70314;BME280;71040;47.526;18.986;2023-08-21T23:02:21;100170.19;;;24.96;84.64
70314;BME280;71040;47.526;18.986;2023-08-21T23:07:24;100165.97;;;24.94;83.92
70314;BME280;71040;47.526;18.986;2023-08-21T23:12:24;100161.78;;;24.91;84.49
70314;BME280;71040;47.526;18.986;2023-08-21T23:17:25;100168.25;;;24.88;84.76
70314;BME280;71040;47.526;18.986;2023-08-21T23:22:25;100156.00;;;24.86;85.16
70314;BME280;71040;47.526;18.986;2023-08-21T23:27:25;100154.34;;;24.85;85.52
70314;BME280;71040;47.526;18.986;2023-08-21T23:32:26;100151.66;;;24.85;85.04
70314;BME280;71040;47.526;18.986;2023-08-21T23:37:26;100150.81;;;24.84;85.17
70314;BME280;71040;47.526;18.986;2023-08-21T23:42:27;100139.28;;;24.84;85.61
70314;BME280;71040;47.526;18.986;2023-08-21T23:47:28;100144.25;;;24.79;84.74
70314;BME280;71040;47.526;18.986;2023-08-21T23:52:29;100132.84;;;24.77;85.34
70314;BME280;71040;47.526;18.986;2023-08-21T23:57:29;100127.81;;;24.74;85.63
